sensor_id;sensor_type;location;lat;lon;timestamp;temperature;humidity
47845;DHT22;33605;48.822;8.796;2023-03-17T00:00:00;9.70;35.90
47845;DHT22;33605;48.822;8.796;2023-03-17T00:02:26;9.70;35.80
47845;DHT22;33605;48.822;8.796;2023-03-17T00:04:52;9.70;35.90
47845;DHT22;33605;48.822;8.796;2023-03-17T00:07:18;9.70;35.90
47845;DHT22;33605;48.822;8.796;2023-03-17T00:09:43;9.70;36.10
47845;DHT22;33605;48.822;8.796;2023-03-17T00:12:10;9.60;36.00
47845;DHT22;33605;48.822;8.796;2023-03-17T00:14:36;9.60;36.10
47845;DHT22;33605;48.822;8.796;2023-03-17T00:17:02;9.60;36.00
47845;DHT22;33605;48.822;8.796;2023-03-17T00:19:34;9.60;35.60
47845;DHT22;33605;48.822;8.796;2023-03-17T00:22:00;9.50;35.20
47845;DHT22;33605;48.822;8.796;2023-03-17T00:24:28;9.50;35.10
47845;DHT22;33605;48.822;8.796;2023-03-17T00:26:53;9.50;35.10
47845;DHT22;33605;48.822;8.796;2023-03-17T00:29:19;9.50;35.00
47845;DHT22;33605;48.822;8.796;2023-03-17T00:31:45;9.50;34.90
47845;DHT22;33605;48.822;8.796;2023-03-17T00:34:14;9.50;34.70
47845;DHT22;33605;48.822;8.796;2023-03-17T00:36:41;9.50;34.60
47845;DHT22;33605;48.822;8.796;2023-03-17T00:39:12;9.50;34.70
47845;DHT22;33605;48.822;8.796;2023-03-17T00:41:39;9.50;34.80
47845;DHT22;33605;48.822;8.796;2023-03-17T00:44:04;9.60;34.70
47845;DHT22;33605;48.822;8.796;2023-03-17T00:46:31;9.60;34.60
47845;DHT22;33605;48.822;8.796;2023-03-17T00:49:22;9.60;34.60
47845;DHT22;33605;48.822;8.796;2023-03-17T00:51:49;9.60;34.60
47845;DHT22;33605;48.822;8.796;2023-03-17T00:54:17;9.60;34.50
47845;DHT22;33605;48.822;8.796;2023-03-17T00:56:44;9.70;34.50
47845;DHT22;33605;48.822;8.796;2023-03-17T00:59:29;9.70;34.30
47845;DHT22;33605;48.822;8.796;2023-03-17T01:01:57;9.70;34.00
47845;DHT22;33605;48.822;8.796;2023-03-17T01:04:24;9.70;33.90
47845;DHT22;33605;48.822;8.796;2023-03-17T01:06:50;9.70;33.80
47845;DHT22;33605;48.822;8.796;2023-03-17T01:09:18;9.70;33.80
47845;DHT22;33605;48.822;8.796;2023-03-17T01:11:44;9.70;33.70
47845;DHT22;33605;48.822;8.796;2023-03-17T01:14:11;9.70;33.70
47845;DHT22;33605;48.822;8.796;2023-03-17T01:16:38;9.70;33.50
47845;DHT22;33605;48.822;8.796;2023-03-17T01:19:04;9.80;33.50
47845;DHT22;33605;48.822;8.796;2023-03-17T01:21:30;9.70;33.30
47845;DHT22;33605;48.822;8.796;2023-03-17T01:23:55;9.80;33.30
47845;DHT22;33605;48.822;8.796;2023-03-17T01:26:21;9.80;33.20
47845;DHT22;33605;48.822;8.796;2023-03-17T01:28:47;9.80;33.00
47845;DHT22;33605;48.822;8.796;2023-03-17T01:31:14;9.80;32.80
47845;DHT22;33605;48.822;8.796;2023-03-17T01:33:41;9.80;32.60
47845;DHT22;33605;48.822;8.796;2023-03-17T01:36:08;9.80;32.50
47845;DHT22;33605;48.822;8.796;2023-03-17T01:38:34;9.90;32.50
47845;DHT22;33605;48.822;8.796;2023-03-17T01:41:00;9.80;32.50
47845;DHT22;33605;48.822;8.796;2023-03-17T01:43:27;9.80;32.60
47845;DHT22;33605;48.822;8.796;2023-03-17T01:48:54;9.90;32.60
47845;DHT22;33605;48.822;8.796;2023-03-17T01:51:35;9.90;32.40
47845;DHT22;33605;48.822;8.796;2023-03-17T01:54:07;9.90;32.10
47845;DHT22;33605;48.822;8.796;2023-03-17T01:56:34;9.90;32.10
47845;DHT22;33605;48.822;8.796;2023-03-17T01:59:04;9.90;32.10
47845;DHT22;33605;48.822;8.796;2023-03-17T02:01:37;10.00;31.00
47845;DHT22;33605;48.822;8.796;2023-03-17T02:04:07;10.00;31.00
47845;DHT22;33605;48.822;8.796;2023-03-17T02:06:33;9.90;32.00
47845;DHT22;33605;48.822;8.796;2023-03-17T02:09:00;9.90;32.10
47845;DHT22;33605;48.822;8.796;2023-03-17T02:11:26;10.00;31.20
47845;DHT22;33605;48.822;8.796;2023-03-17T02:13:52;10.10;31.40
47845;DHT22;33605;48.822;8.796;2023-03-17T02:16:18;10.00;31.20
47845;DHT22;33605;48.822;8.796;2023-03-17T02:18:45;10.00;31.20
47845;DHT22;33605;48.822;8.796;2023-03-17T02:21:36;10.00;31.20
47845;DHT22;33605;48.822;8.796;2023-03-17T02:24:07;10.10;31.20
47845;DHT22;33605;48.822;8.796;2023-03-17T02:26:33;10.10;31.00
47845;DHT22;33605;48.822;8.796;2023-03-17T02:29:00;10.10;30.80
47845;DHT22;33605;48.822;8.796;2023-03-17T02:31:26;10.10;31.00
47845;DHT22;33605;48.822;8.796;2023-03-17T02:33:52;10.10;31.10
47845;DHT22;33605;48.822;8.796;2023-03-17T02:36:18;10.10;31.30
47845;DHT22;33605;48.822;8.796;2023-03-17T02:38:44;10.10;31.00
47845;DHT22;33605;48.822;8.796;2023-03-17T02:41:10;10.00;30.70
47845;DHT22;33605;48.822;8.796;2023-03-17T02:43:35;10.00;30.70
47845;DHT22;33605;48.822;8.796;2023-03-17T02:46:02;10.00;31.30
47845;DHT22;33605;48.822;8.796;2023-03-17T02:48:28;10.00;30.80
47845;DHT22;33605;48.822;8.796;2023-03-17T02:50:53;10.00;30.80
47845;DHT22;33605;48.822;8.796;2023-03-17T02:53:19;10.00;30.70
47845;DHT22;33605;48.822;8.796;2023-03-17T02:55:45;9.90;31.80
47845;DHT22;33605;48.822;8.796;2023-03-17T02:58:11;9.90;31.80
47845;DHT22;33605;48.822;8.796;2023-03-17T03:00:37;9.90;31.80
47845;DHT22;33605;48.822;8.796;2023-03-17T03:03:03;9.90;31.60
47845;DHT22;33605;48.822;8.796;2023-03-17T03:05:29;9.90;31.60
47845;DHT22;33605;48.822;8.796;2023-03-17T03:07:54;9.90;31.50
47845;DHT22;33605;48.822;8.796;2023-03-17T03:10:20;9.90;31.40
47845;DHT22;33605;48.822;8.796;2023-03-17T03:12:46;9.90;31.30
47845;DHT22;33605;48.822;8.796;2023-03-17T03:15:12;10.00;30.00
47845;DHT22;33605;48.822;8.796;2023-03-17T03:17:38;10.00;30.00
47845;DHT22;33605;48.822;8.796;2023-03-17T03:20:04;10.00;30.00
47845;DHT22;33605;48.822;8.796;2023-03-17T03:22:30;10.00;30.00
47845;DHT22;33605;48.822;8.796;2023-03-17T03:24:55;10.00;30.00
47845;DHT22;33605;48.822;8.796;2023-03-17T03:27:21;10.00;29.90
47845;DHT22;33605;48.822;8.796;2023-03-17T03:29:47;10.10;30.00
47845;DHT22;33605;48.822;8.796;2023-03-17T03:32:12;10.10;29.90
47845;DHT22;33605;48.822;8.796;2023-03-17T03:34:38;10.10;29.80
47845;DHT22;33605;48.822;8.796;2023-03-17T03:37:04;10.20;29.80
47845;DHT22;33605;48.822;8.796;2023-03-17T03:39:30;10.20;29.80
47845;DHT22;33605;48.822;8.796;2023-03-17T03:41:56;10.20;29.80
47845;DHT22;33605;48.822;8.796;2023-03-17T03:44:22;10.20;29.80
47845;DHT22;33605;48.822;8.796;2023-03-17T03:46:48;10.30;29.90
47845;DHT22;33605;48.822;8.796;2023-03-17T03:49:14;10.30;29.90
47845;DHT22;33605;48.822;8.796;2023-03-17T03:51:40;10.30;29.90
47845;DHT22;33605;48.822;8.796;2023-03-17T03:54:05;10.30;29.80
47845;DHT22;33605;48.822;8.796;2023-03-17T03:56:31;10.30;29.70
47845;DHT22;33605;48.822;8.796;2023-03-17T03:58:57;10.30;29.70
47845;DHT22;33605;48.822;8.796;2023-03-17T04:01:22;10.30;29.60
47845;DHT22;33605;48.822;8.796;2023-03-17T04:03:49;10.30;29.50
47845;DHT22;33605;48.822;8.796;2023-03-17T04:06:15;10.30;29.50
47845;DHT22;33605;48.822;8.796;2023-03-17T04:08:41;10.30;29.60
47845;DHT22;33605;48.822;8.796;2023-03-17T04:11:07;10.30;29.50
47845;DHT22;33605;48.822;8.796;2023-03-17T04:13:33;10.40;29.50
47845;DHT22;33605;48.822;8.796;2023-03-17T04:16:00;10.40;29.40
47845;DHT22;33605;48.822;8.796;2023-03-17T04:18:26;10.40;29.40
47845;DHT22;33605;48.822;8.796;2023-03-17T04:20:52;10.40;29.30
47845;DHT22;33605;48.822;8.796;2023-03-17T04:23:17;10.50;29.50
47845;DHT22;33605;48.822;8.796;2023-03-17T04:25:43;10.50;29.40
47845;DHT22;33605;48.822;8.796;2023-03-17T04:28:09;10.50;29.30
47845;DHT22;33605;48.822;8.796;2023-03-17T04:30:35;10.50;29.40
47845;DHT22;33605;48.822;8.796;2023-03-17T04:33:00;10.50;29.30
47845;DHT22;33605;48.822;8.796;2023-03-17T04:35:26;10.60;29.40
47845;DHT22;33605;48.822;8.796;2023-03-17T04:37:52;10.50;29.20
47845;DHT22;33605;48.822;8.796;2023-03-17T04:40:18;10.60;29.40
47845;DHT22;33605;48.822;8.796;2023-03-17T04:42:44;10.60;29.80
47845;DHT22;33605;48.822;8.796;2023-03-17T04:45:11;10.60;29.10
47845;DHT22;33605;48.822;8.796;2023-03-17T04:47:37;10.50;29.00
47845;DHT22;33605;48.822;8.796;2023-03-17T04:50:04;10.40;29.30
47845;DHT22;33605;48.822;8.796;2023-03-17T04:52:29;10.40;28.90
47845;DHT22;33605;48.822;8.796;2023-03-17T04:54:55;10.40;29.00
47845;DHT22;33605;48.822;8.796;2023-03-17T04:57:21;10.40;29.00
47845;DHT22;33605;48.822;8.796;2023-03-17T05:02:16;10.40;28.90
47845;DHT22;33605;48.822;8.796;2023-03-17T05:04:43;10.40;28.90
47845;DHT22;33605;48.822;8.796;2023-03-17T05:07:10;10.40;28.90
47845;DHT22;33605;48.822;8.796;2023-03-17T05:09:36;10.40;28.80
47845;DHT22;33605;48.822;8.796;2023-03-17T05:12:02;10.50;28.90
47845;DHT22;33605;48.822;8.796;2023-03-17T05:14:28;10.50;28.90
47845;DHT22;33605;48.822;8.796;2023-03-17T05:16:53;10.50;28.90
47845;DHT22;33605;48.822;8.796;2023-03-17T05:19:19;10.50;29.00
47845;DHT22;33605;48.822;8.796;2023-03-17T05:21:45;10.50;29.10
47845;DHT22;33605;48.822;8.796;2023-03-17T05:24:12;10.50;29.20
47845;DHT22;33605;48.822;8.796;2023-03-17T05:26:37;10.60;29.30
47845;DHT22;33605;48.822;8.796;2023-03-17T05:29:03;10.50;29.20
47845;DHT22;33605;48.822;8.796;2023-03-17T05:31:29;10.50;29.30
47845;DHT22;33605;48.822;8.796;2023-03-17T05:33:55;10.60;29.40
47845;DHT22;33605;48.822;8.796;2023-03-17T05:36:21;10.60;29.40
47845;DHT22;33605;48.822;8.796;2023-03-17T05:38:47;10.60;29.40
47845;DHT22;33605;48.822;8.796;2023-03-17T05:41:13;10.60;29.40
47845;DHT22;33605;48.822;8.796;2023-03-17T05:43:38;10.50;29.30
47845;DHT22;33605;48.822;8.796;2023-03-17T05:46:04;10.50;29.30
47845;DHT22;33605;48.822;8.796;2023-03-17T05:48:30;10.60;29.40
47845;DHT22;33605;48.822;8.796;2023-03-17T05:50:56;10.60;29.40
47845;DHT22;33605;48.822;8.796;2023-03-17T05:53:22;10.60;29.30
47845;DHT22;33605;48.822;8.796;2023-03-17T05:55:48;10.60;29.30
47845;DHT22;33605;48.822;8.796;2023-03-17T05:58:14;10.70;29.40
47845;DHT22;33605;48.822;8.796;2023-03-17T06:00:43;10.70;29.40
47845;DHT22;33605;48.822;8.796;2023-03-17T06:03:09;10.70;29.30
47845;DHT22;33605;48.822;8.796;2023-03-17T06:05:35;10.70;29.30
47845;DHT22;33605;48.822;8.796;2023-03-17T06:08:02;10.70;29.40
47845;DHT22;33605;48.822;8.796;2023-03-17T06:10:29;10.70;29.40
47845;DHT22;33605;48.822;8.796;2023-03-17T06:12:55;10.70;29.40
47845;DHT22;33605;48.822;8.796;2023-03-17T06:15:21;10.70;29.50
47845;DHT22;33605;48.822;8.796;2023-03-17T06:17:47;10.70;29.50
47845;DHT22;33605;48.822;8.796;2023-03-17T06:20:12;10.70;29.60
47845;DHT22;33605;48.822;8.796;2023-03-17T06:22:39;10.70;29.60
47845;DHT22;33605;48.822;8.796;2023-03-17T06:25:05;10.70;29.70
47845;DHT22;33605;48.822;8.796;2023-03-17T06:27:34;10.70;29.70
47845;DHT22;33605;48.822;8.796;2023-03-17T06:30:00;10.70;29.80
47845;DHT22;33605;48.822;8.796;2023-03-17T06:32:28;10.80;29.90
47845;DHT22;33605;48.822;8.796;2023-03-17T06:34:55;10.80;29.90
47845;DHT22;33605;48.822;8.796;2023-03-17T06:37:20;10.80;29.90
47845;DHT22;33605;48.822;8.796;2023-03-17T06:39:46;10.90;29.80
